Hauptseite
METAR-TAF:

METAR-TAF

Flughäfen :

Iguaçu, Argentinien

Breite: 25-44S, Länge: 054-28W, Höhe: 270 m

Beobachtung

Neuester Wetterbericht von vor 38 Minuten, um 21:00 UTC
Windstille
Temperatur 28°C
Luftfeuchtigkeit 55%
Luftdruck 1016 hPa
Sichtweite 10 km oder mehr
keine Wolken unter 1500 m und keine Kumulonimbus oder Gewitterwolken

METAR: SARI 162100Z 00000KT CAVOK 28/18 Q1016

Zeit: 18:38 (21:38 UTC)

Prognose

Neuester Wetterbericht von vor 4 Stunden und 38 Minuten, um 17:00 UTC
Gültige Prognose vom 16 um 18 UTC bis 17 um 18 UTC
Wind 10 kt aus Nord
Sichtweite 10 km oder mehr
keine Wolken unter 1500 m und keine Kumulonimbus oder Gewitterwolken

TAF: SARI 161700Z 1618/1718 36010KT CAVOK TX28/1718Z TN16/1710Z

Wetterbeobachtungen und Prognosen von mehr als 4000 Flughäfen (METAR und TAF Bericht).

Die verfügbaren Stationen werden durch gelbe und rote Markierungen auf der Karte dargestellt.

Führen Sie die Maus auf sie, um den Namen der Station zu sehen.

Darauf klicken, um die Beobachtung von Wetterbeobachtungen und Prognosen zu sehen.

Um die Karte zu ändern : klicken Sie auf den grünen Tasten mit einem schwarzen Kreuz Zum Vergrößern, auf den grünen Button mit einem Gedankenstrich zu verkleinern, oder auf die grünen Pfeile für benachbarte Karten.


METAR-TAF: